»·PEaware :: UAL4 EHAM-KEWR

UAL4 :: EHAM-KEWR

FLIGHT INFORMATION

Flight Status: Arrived
Operator:
United Airlines
More flights by this operator :: More flights under this callsign
Pilot: Petey Y. (19550)
Aircraft: Unknown
(773)
More flights by this aircraft type
Origin: EHAM Schiphol
Netherlands
Destination: KEWR Newark Intl
United States
More flights between these airports :: More routes between these airports
Route: BERGI SUPUR KOLAG L60 PENIL M144 BAGSO DOGAL/M083F350 NATA 52N050W/N0483F350 NATA TUDEP/N0488F360 N398A TOPPS BGR J49 FRIAR J55 ENE NELIE FLOSI4
File this flight plan on PilotEdge
Remarks: RMK / SIMBRIEF
Altitude:
(Current/Filed)
34,000ft
Speed:
(Current/Filed)
476kts
Departed: 27-Mar-20 10:37 PM
Arrived: 28-Mar-20 05:45 AM
Distance/Time
Traveled:
3167nm/7:08
Distance/Time
To Go:
Arrived

Flight Plot

Page will automatically refresh every two minutes.


Map Options




Map Legend


Flown Route
Filed Route
Departure Airport
Arrival Airport
Navaid (VOR, NDB)
Fix

Horizontal Profiles

Position Reports

Time Latitude Longitude Heading Altitude Ground
Speed
27-Mar-20 22:35 53.415775 -1.255208 278 31996ft 455kts
27-Mar-20 22:36 53.434999 -1.463135 278 31996ft 455kts
27-Mar-20 22:37 53.454281 -1.673505 278 31996ft 455kts
27-Mar-20 22:38 53.473239 -1.883592 278 31996ft 455kts
27-Mar-20 22:39 53.491418 -2.094590 277 31997ft 455kts
27-Mar-20 22:40 53.509224 -2.305500 277 31997ft 455kts
27-Mar-20 22:41 53.526245 -2.515946 277 31996ft 455kts
27-Mar-20 22:42 53.543032 -2.727616 277 31996ft 455kts
27-Mar-20 22:43 53.560736 -2.937490 277 31996ft 455kts
27-Mar-20 22:44 53.577586 -3.150503 277 31997ft 455kts
27-Mar-20 22:45 53.593913 -3.360105 276 31997ft 455kts
27-Mar-20 22:46 53.609320 -3.573328 276 31996ft 455kts
27-Mar-20 22:47 53.621471 -3.783643 272 31997ft 455kts
27-Mar-20 22:48 53.629691 -3.997863 273 31996ft 455kts
27-Mar-20 22:49 53.637977 -4.209731 273 31996ft 455kts
27-Mar-20 22:50 53.645854 -4.422023 273 31996ft 455kts
27-Mar-20 22:51 53.653697 -4.636271 272 31996ft 455kts
27-Mar-20 22:52 53.660641 -4.849836 273 31996ft 455kts
27-Mar-20 22:53 53.667412 -5.060675 272 31997ft 455kts
27-Mar-20 22:54 53.673934 -5.275299 272 31996ft 455kts
27-Mar-20 22:55 53.679734 -5.489481 272 31996ft 455kts
27-Mar-20 22:56 53.693039 -5.701703 277 31996ft 455kts
27-Mar-20 22:57 53.708477 -5.912719 276 31997ft 455kts
27-Mar-20 22:58 53.722937 -6.125077 276 31997ft 455kts
27-Mar-20 22:59 53.738435 -6.337101 276 31996ft 455kts
27-Mar-20 23:00 53.752662 -6.550710 275 31996ft 455kts
27-Mar-20 23:01 53.766170 -6.761745 275 31996ft 455kts
27-Mar-20 23:02 53.779431 -6.975337 275 31997ft 455kts
27-Mar-20 23:03 53.792330 -7.189458 275 31996ft 455kts
27-Mar-20 23:04 53.804817 -7.403180 275 31996ft 455kts
27-Mar-20 23:05 53.816894 -7.616480 275 31997ft 455kts
27-Mar-20 23:06 53.828480 -7.827857 274 31996ft 455kts
27-Mar-20 23:07 53.839841 -8.042135 274 31996ft 455kts
27-Mar-20 23:08 53.850792 -8.255973 274 31996ft 455kts
27-Mar-20 23:09 53.861360 -8.469863 274 31997ft 455kts
27-Mar-20 23:10 53.871539 -8.683691 274 31997ft 455kts
27-Mar-20 23:11 53.881329 -8.897409 274 31996ft 455kts
27-Mar-20 23:12 53.890766 -9.111868 273 31996ft 455kts
27-Mar-20 23:13 53.899761 -9.324967 273 31996ft 455kts
27-Mar-20 23:14 53.908442 -9.539724 273 31997ft 455kts
27-Mar-20 23:15 53.916703 -9.753649 273 31996ft 455kts
27-Mar-20 23:16 53.924599 -9.968066 273 31996ft 455kts
27-Mar-20 23:17 53.932134 -10.183206 273 31996ft 455kts
27-Mar-20 23:18 53.939250 -10.397278 272 31997ft 455kts
27-Mar-20 23:19 53.945979 -10.611260 272 31996ft 455kts
27-Mar-20 23:21 53.952372 -10.826848 272 31996ft 455kts
27-Mar-20 23:22 53.958360 -11.041798 272 31997ft 455kts
27-Mar-20 23:23 53.963904 -11.254423 272 31996ft 455kts
27-Mar-20 23:24 53.969126 -11.469353 272 31997ft 455kts
27-Mar-20 23:25 53.974017 -11.686782 271 31996ft 455kts
27-Mar-20 23:26 53.978453 -11.901140 271 31996ft 455kts
27-Mar-20 23:27 53.982517 -12.116051 271 31996ft 455kts
27-Mar-20 23:28 53.986202 -12.331260 271 31996ft 455kts
27-Mar-20 23:29 53.989497 -12.546054 271 31997ft 455kts
27-Mar-20 23:30 53.992409 -12.761047 271 31996ft 455kts
27-Mar-20 23:31 53.994934 -12.975555 271 31996ft 455kts
27-Mar-20 23:32 53.997070 -13.189255 270 31996ft 455kts
27-Mar-20 23:33 53.998857 -13.407187 270 31996ft 455kts
27-Mar-20 23:34 54.000234 -13.622092 270 31997ft 455kts
27-Mar-20 23:35 54.001229 -13.837277 270 31996ft 455kts
27-Mar-20 23:36 54.001839 -14.052336 270 31996ft 455kts
27-Mar-20 23:37 54.002069 -14.268503 270 31996ft 455kts
27-Mar-20 23:37 54.001973 -14.448190 270 31996ft 455kts
27-Mar-20 23:39 54.001900 -14.697593 269 31996ft 455kts
27-Mar-20 23:40 54.000546 -14.913487 269 31997ft 455kts
27-Mar-20 23:40 54.006631 -15.090832 277 31997ft 456kts
27-Mar-20 23:41 54.026025 -15.306828 278 31997ft 456kts
27-Mar-20 23:43 54.046859 -15.554915 277 31997ft 456kts
27-Mar-20 23:43 54.062871 -15.733425 278 31997ft 456kts
27-Mar-20 23:44 54.080959 -15.945159 277 31996ft 456kts
27-Mar-20 23:46 54.101354 -16.196596 277 32091ft 459kts
27-Mar-20 23:46 54.115438 -16.375082 277 33304ft 454kts
27-Mar-20 23:47 54.131822 -16.587357 277 33996ft 451kts
27-Mar-20 23:48 54.147912 -16.800916 276 33997ft 451kts
27-Mar-20 23:49 54.163379 -17.011259 276 33056ft 451kts
27-Mar-20 23:50 54.178678 -17.224583 276 32043ft 455kts
27-Mar-20 23:51 54.193756 -17.440325 276 31996ft 456kts
27-Mar-20 23:52 54.208416 -17.655739 276 31997ft 455kts
27-Mar-20 23:53 54.222563 -17.869335 276 31996ft 456kts
27-Mar-20 23:54 54.236537 -18.086297 275 31997ft 455kts
27-Mar-20 23:55 54.250007 -18.301556 275 31996ft 456kts
27-Mar-20 23:56 54.263038 -18.516039 275 31997ft 455kts
27-Mar-20 23:57 54.275789 -18.732383 275 31996ft 455kts
27-Mar-20 23:58 54.288067 -18.947341 275 31997ft 455kts
27-Mar-20 23:59 54.300029 -19.163651 275 31996ft 455kts
28-Mar-20 00:00 54.311603 -19.380069 274 31997ft 455kts
28-Mar-20 00:01 54.322768 -19.596172 274 31996ft 455kts
28-Mar-20 00:02 54.333525 -19.811957 274 31997ft 455kts
28-Mar-20 00:03 54.343870 -20.027308 274 31996ft 455kts
28-Mar-20 00:04 54.353932 -20.244948 274 31996ft 455kts
28-Mar-20 00:05 54.363571 -20.461989 274 31996ft 455kts
28-Mar-20 00:06 54.372807 -20.678791 273 31996ft 455kts
28-Mar-20 00:07 54.381633 -20.895162 273 31997ft 455kts
28-Mar-20 00:08 54.390078 -21.111785 273 31996ft 455kts
28-Mar-20 00:09 54.398123 -21.328169 273 31997ft 455kts
28-Mar-20 00:10 54.405841 -21.546377 273 31996ft 455kts
28-Mar-20 00:11 54.413148 -21.764094 273 31997ft 455kts
28-Mar-20 00:12 54.420016 -21.980393 272 31996ft 455kts
28-Mar-20 00:13 54.426546 -22.198408 272 31997ft 455kts
28-Mar-20 00:14 54.432640 -22.414883 272 31996ft 455kts
28-Mar-20 00:15 54.438388 -22.633079 272 31996ft 455kts
28-Mar-20 00:16 54.443710 -22.849942 272 31997ft 455kts
28-Mar-20 00:17 54.448608 -23.065219 272 31996ft 455kts
28-Mar-20 00:18 54.453221 -23.285374 271 31997ft 455kts
28-Mar-20 00:19 54.457347 -23.500880 271 31996ft 455kts
28-Mar-20 00:20 54.461142 -23.719575 271 31996ft 455kts
28-Mar-20 00:21 54.464531 -23.937598 271 31997ft 455kts
28-Mar-20 00:22 54.467524 -24.155357 271 31996ft 455kts
28-Mar-20 00:23 54.470133 -24.373773 271 31997ft 455kts
28-Mar-20 00:24 54.472342 -24.591571 270 31996ft 455kts
28-Mar-20 00:25 54.474158 -24.809154 270 31996ft 455kts
28-Mar-20 00:26 54.475583 -25.026864 270 31997ft 455kts
28-Mar-20 00:27 54.476619 -25.244989 270 31996ft 455kts
28-Mar-20 00:28 54.477259 -25.461697 270 31997ft 455kts
28-Mar-20 00:29 54.477512 -25.680245 270 31996ft 455kts
28-Mar-20 00:30 54.477373 -25.897048 269 31997ft 455kts
28-Mar-20 00:31 54.476841 -26.115627 269 31996ft 455kts
28-Mar-20 00:32 54.475914 -26.334210 269 31997ft 455kts
28-Mar-20 00:33 54.474600 -26.551746 269 31996ft 455kts
28-Mar-20 00:34 54.472900 -26.768781 269 31997ft 455kts
28-Mar-20 00:35 54.470798 -26.987070 269 31996ft 455kts
28-Mar-20 00:36 54.468316 -27.204194 268 31997ft 455kts
28-Mar-20 00:37 54.465441 -27.421621 268 31996ft 455kts
28-Mar-20 00:38 54.462171 -27.639297 268 31996ft 455kts
28-Mar-20 00:39 54.458508 -27.857020 268 31997ft 455kts
28-Mar-20 00:40 54.454442 -28.075310 268 31996ft 455kts
28-Mar-20 00:41 54.450002 -28.292650 268 31997ft 455kts
28-Mar-20 00:42 54.445167 -28.510201 267 31996ft 455kts
28-Mar-20 00:43 54.439980 -28.726101 267 31997ft 455kts
28-Mar-20 00:44 54.434345 -28.944323 267 31996ft 455kts
28-Mar-20 00:45 54.428317 -29.162502 267 31996ft 455kts
28-Mar-20 00:46 54.421902 -29.380391 267 31997ft 455kts
28-Mar-20 00:47 54.415150 -29.596519 267 31996ft 455kts
28-Mar-20 00:48 54.407964 -29.813973 266 31996ft 455kts
28-Mar-20 00:49 54.400405 -30.030856 266 31997ft 455kts
28-Mar-20 00:50 54.392422 -30.248638 266 31996ft 455kts
28-Mar-20 00:51 54.384087 -30.465294 266 31996ft 455kts
28-Mar-20 00:52 54.375383 -30.681435 266 31997ft 455kts
28-Mar-20 00:53 54.366269 -30.898016 266 31996ft 455kts
28-Mar-20 00:54 54.356750 -31.114901 265 31996ft 455kts
28-Mar-20 00:55 54.346886 -31.330763 265 31997ft 455kts
28-Mar-20 00:56 54.336650 -31.546227 265 31996ft 455kts
28-Mar-20 00:57 54.325909 -31.764024 265 31996ft 455kts
28-Mar-20 00:58 54.314870 -31.979879 265 31997ft 455kts
28-Mar-20 00:59 54.303525 -32.194154 265 31996ft 455kts
28-Mar-20 01:00 54.291676 -32.410554 264 31997ft 455kts
28-Mar-20 01:01 54.279432 -32.626948 264 31996ft 455kts
28-Mar-20 01:02 54.266861 -32.842216 264 31996ft 455kts
28-Mar-20 01:03 54.253883 -33.057721 264 31997ft 455kts
28-Mar-20 01:04 54.240497 -33.273474 264 31996ft 455kts
28-Mar-20 01:05 54.226791 -33.488087 264 31996ft 455kts
28-Mar-20 01:06 54.212634 -33.703601 263 31996ft 455kts
28-Mar-20 01:07 54.198111 -33.918708 263 31996ft 455kts
28-Mar-20 01:08 54.183316 -34.132060 263 31997ft 455kts
28-Mar-20 01:09 54.168053 -34.346541 263 31996ft 455kts
28-Mar-20 01:10 54.152367 -34.561433 263 31997ft 455kts
28-Mar-20 01:11 54.136329 -34.775769 263 31996ft 455kts
28-Mar-20 01:12 54.119905 -34.989996 262 31997ft 455kts
28-Mar-20 01:13 54.103123 -35.203783 262 31996ft 455kts
28-Mar-20 01:14 54.085913 -35.417996 262 31996ft 455kts
28-Mar-20 01:15 54.068304 -35.632255 262 31997ft 455kts
28-Mar-20 01:16 54.050525 -35.843851 262 31996ft 455kts
28-Mar-20 01:17 54.032084 -36.058622 262 31996ft 455kts
28-Mar-20 01:18 54.013465 -36.270903 261 31997ft 455kts
28-Mar-20 01:19 53.994386 -36.483945 261 31996ft 455kts
28-Mar-20 01:20 53.974954 -36.696534 261 31996ft 455kts
28-Mar-20 01:21 53.955139 -36.909007 261 31996ft 455kts
28-Mar-20 01:22 53.934918 -37.121594 261 31997ft 455kts
28-Mar-20 01:23 53.914434 -37.332842 261 31997ft 455kts
28-Mar-20 01:24 53.893364 -37.546043 260 31997ft 455kts
28-Mar-20 01:25 53.872078 -37.757439 260 31996ft 455kts
28-Mar-20 01:26 53.850481 -37.968037 260 31996ft 455kts
28-Mar-20 01:27 53.828375 -38.179754 260 31996ft 455kts
28-Mar-20 01:28 53.805889 -38.391311 260 31996ft 455kts
28-Mar-20 01:29 53.783062 -38.602360 260 31996ft 455kts
28-Mar-20 01:30 53.759915 -38.812727 259 31996ft 455kts
28-Mar-20 01:32 53.736488 -39.022078 259 31996ft 455kts
28-Mar-20 01:33 53.712460 -39.233255 259 31996ft 455kts
28-Mar-20 01:34 53.688340 -39.441806 259 31996ft 455kts
28-Mar-20 01:35 53.663687 -39.651554 259 31996ft 456kts
28-Mar-20 01:36 53.638697 -39.860810 259 31996ft 456kts
28-Mar-20 01:37 53.613176 -40.071189 258 31996ft 456kts
28-Mar-20 01:38 53.587568 -40.279037 258 31996ft 456kts
28-Mar-20 01:39 53.561382 -40.488369 258 31996ft 456kts
28-Mar-20 01:40 53.534968 -40.696369 258 31996ft 456kts
28-Mar-20 01:41 53.507990 -40.905667 258 31996ft 456kts
28-Mar-20 01:42 53.480919 -41.112641 258 31996ft 456kts
28-Mar-20 01:43 53.453397 -41.320049 258 31996ft 456kts
28-Mar-20 01:44 53.425421 -41.527891 257 31996ft 456kts
28-Mar-20 01:45 53.397110 -41.735272 257 31996ft 456kts
28-Mar-20 01:46 53.368417 -41.942541 257 31996ft 456kts
28-Mar-20 01:47 53.339658 -42.147464 257 31996ft 456kts
28-Mar-20 01:48 53.310208 -42.354476 257 31996ft 456kts
28-Mar-20 01:49 53.280565 -42.560073 257 31996ft 456kts
28-Mar-20 01:49 53.255455 -42.732127 256 31996ft 456kts
28-Mar-20 01:51 53.220007 -42.971836 256 31996ft 456kts
28-Mar-20 01:52 53.189319 -43.176470 256 31996ft 456kts
28-Mar-20 01:52 53.163254 -43.348240 256 31996ft 456kts
28-Mar-20 01:54 53.126606 -43.586710 256 31996ft 456kts
28-Mar-20 01:54 53.100050 -43.757349 256 31996ft 456kts
28-Mar-20 01:56 53.062640 -43.994775 255 31996ft 456kts
28-Mar-20 01:56 53.035474 -44.165078 255 31996ft 456kts
28-Mar-20 01:57 53.002629 -44.368700 255 31996ft 456kts
28-Mar-20 01:58 52.969556 -44.571286 255 31996ft 456kts
28-Mar-20 01:59 52.935936 -44.774777 255 31996ft 456kts
28-Mar-20 02:00 52.902173 -44.976745 255 31996ft 456kts
28-Mar-20 02:01 52.868092 -45.178256 255 31996ft 456kts
28-Mar-20 02:02 52.833612 -45.379782 254 31996ft 456kts
28-Mar-20 02:03 52.798502 -45.582652 254 31996ft 456kts
28-Mar-20 02:04 52.763209 -45.784271 254 31996ft 456kts
28-Mar-20 02:05 52.727694 -45.984890 254 31996ft 456kts
28-Mar-20 02:06 52.691854 -46.185116 254 31996ft 456kts
28-Mar-20 02:07 52.655574 -46.385574 254 31996ft 456kts
28-Mar-20 02:08 52.618917 -46.585907 254 31996ft 456kts
28-Mar-20 02:09 52.581881 -46.786134 253 31996ft 456kts
28-Mar-20 02:10 52.544780 -46.984571 253 31996ft 456kts
28-Mar-20 02:11 52.507097 -47.183995 253 31997ft 456kts
28-Mar-20 02:12 52.469239 -47.382245 253 31996ft 456kts
28-Mar-20 02:13 52.430851 -47.581177 253 31997ft 456kts
28-Mar-20 02:14 52.392583 -47.777448 253 31996ft 456kts
28-Mar-20 02:15 52.353359 -47.976570 252 31996ft 456kts
28-Mar-20 02:16 52.314235 -48.173167 252 31996ft 456kts
28-Mar-20 02:17 52.274487 -48.370891 252 31996ft 456kts
28-Mar-20 02:18 52.234851 -48.566093 252 31996ft 456kts
28-Mar-20 02:19 52.194675 -48.762002 252 31996ft 456kts
28-Mar-20 02:20 52.153587 -48.960394 252 31997ft 456kts
28-Mar-20 02:21 52.112791 -49.155442 252 31997ft 456kts
28-Mar-20 02:22 52.071545 -49.350740 251 31997ft 456kts
28-Mar-20 02:23 52.030104 -49.545084 251 31997ft 456kts
28-Mar-20 02:24 51.988129 -49.740060 251 31997ft 456kts
28-Mar-20 02:25 51.946216 -49.932913 251 31997ft 456kts
28-Mar-20 02:26 51.903511 -50.127573 251 31997ft 456kts
28-Mar-20 02:27 51.860685 -50.320965 251 31997ft 456kts
28-Mar-20 02:28 51.817581 -50.513818 251 31997ft 457kts
28-Mar-20 02:29 51.773849 -50.707682 250 31996ft 457kts
28-Mar-20 02:30 51.730208 -50.899379 250 31996ft 457kts
28-Mar-20 02:31 51.685934 -51.092103 250 31996ft 457kts
28-Mar-20 02:32 51.641604 -51.283336 250 31996ft 457kts
28-Mar-20 02:33 51.598663 -51.466949 250 31996ft 457kts
28-Mar-20 02:34 51.553602 -51.657988 250 31996ft 457kts
28-Mar-20 02:35 51.508271 -51.848470 250 31996ft 457kts
28-Mar-20 02:36 51.462443 -52.039361 249 31996ft 457kts
28-Mar-20 02:37 51.416494 -52.229092 249 31997ft 457kts
28-Mar-20 02:38 51.370127 -52.418908 249 31996ft 457kts
28-Mar-20 02:39 51.323739 -52.607194 249 31996ft 457kts
28-Mar-20 02:40 51.277161 -52.795858 250 31997ft 457kts
28-Mar-20 02:41 51.230113 -52.984167 249 31997ft 457kts
28-Mar-20 02:42 51.182045 -53.172949 249 31996ft 457kts
28-Mar-20 02:43 51.130376 -53.358348 244 31996ft 458kts
28-Mar-20 02:44 51.073764 -53.539709 245 31997ft 458kts
28-Mar-20 02:45 51.017622 -53.721055 245 31996ft 458kts
28-Mar-20 02:46 50.962794 -53.903261 245 31996ft 457kts
28-Mar-20 02:47 50.907180 -54.084217 245 31996ft 457kts
28-Mar-20 02:48 50.851026 -54.264799 245 31997ft 458kts
28-Mar-20 02:49 50.794301 -54.445750 244 31996ft 458kts
28-Mar-20 02:50 50.737532 -54.625497 244 31996ft 458kts
28-Mar-20 02:51 50.680606 -54.804432 244 31996ft 458kts
28-Mar-20 02:52 50.623138 -54.983767 244 31997ft 458kts
28-Mar-20 02:53 50.565242 -55.163141 244 31996ft 458kts
28-Mar-20 02:54 50.508932 -55.336359 244 31996ft 458kts
28-Mar-20 02:55 50.450803 -55.513932 244 31996ft 458kts
28-Mar-20 02:56 50.392781 -55.689928 243 31996ft 458kts
28-Mar-20 02:57 50.335715 -55.861817 243 31996ft 458kts
28-Mar-20 02:58 50.276793 -56.038088 243 31997ft 458kts
28-Mar-20 02:59 50.217466 -56.214329 243 31997ft 458kts
28-Mar-20 03:00 50.158753 -56.387538 243 31996ft 458kts
28-Mar-20 03:01 50.098181 -56.565004 243 31996ft 458kts
28-Mar-20 03:02 50.038956 -56.737329 243 31996ft 458kts
28-Mar-20 03:03 49.978860 -56.911010 243 31997ft 458kts
28-Mar-20 03:04 49.918228 -57.085048 242 31996ft 458kts
28-Mar-20 03:05 49.857190 -57.259063 242 31996ft 458kts
28-Mar-20 03:06 49.796103 -57.432044 242 31997ft 458kts
28-Mar-20 03:07 49.734641 -57.604917 242 31996ft 458kts
28-Mar-20 03:08 49.673076 -57.776926 242 31996ft 458kts
28-Mar-20 03:09 49.611080 -57.948986 242 31996ft 458kts
28-Mar-20 03:10 49.548770 -58.120774 242 31997ft 458kts
28-Mar-20 03:11 49.486366 -58.291687 242 31996ft 458kts
28-Mar-20 03:12 49.423861 -58.461758 241 31996ft 458kts
28-Mar-20 03:13 49.360809 -58.632197 241 31997ft 458kts
28-Mar-20 03:14 49.297398 -58.802493 241 31996ft 458kts
28-Mar-20 03:15 49.234019 -58.971600 241 31997ft 458kts
28-Mar-20 03:16 49.170422 -59.140197 241 31996ft 458kts
28-Mar-20 03:17 49.106424 -59.308773 241 31996ft 458kts
28-Mar-20 03:18 49.042269 -59.476685 241 31996ft 458kts
28-Mar-20 03:19 48.977884 -59.644127 241 31996ft 458kts
28-Mar-20 03:20 48.913344 -59.810915 240 31997ft 458kts
28-Mar-20 03:21 48.848366 -59.977781 240 31996ft 459kts
28-Mar-20 03:22 48.782918 -60.144795 240 31996ft 459kts
28-Mar-20 03:23 48.717703 -60.310177 240 31996ft 459kts
28-Mar-20 03:24 48.651709 -60.476493 240 31996ft 459kts
28-Mar-20 03:25 48.586052 -60.640937 240 31997ft 459kts
28-Mar-20 03:26 48.519592 -60.806366 240 31996ft 459kts
28-Mar-20 03:27 48.453404 -60.970110 240 31996ft 459kts
28-Mar-20 03:28 48.386892 -61.133649 240 31996ft 459kts
28-Mar-20 03:29 48.320051 -61.297001 239 31996ft 459kts
28-Mar-20 03:30 48.252902 -61.460110 239 31996ft 459kts
28-Mar-20 03:31 48.185188 -61.623600 239 31996ft 459kts
28-Mar-20 03:32 48.117907 -61.785067 239 31997ft 459kts
28-Mar-20 03:33 48.050009 -61.947040 239 31996ft 459kts
28-Mar-20 03:34 47.981817 -62.108745 239 31996ft 459kts
28-Mar-20 03:35 47.913589 -62.269577 239 31996ft 459kts
28-Mar-20 03:36 47.844999 -62.430306 239 31996ft 459kts
28-Mar-20 03:37 47.776703 -62.589409 239 31997ft 459kts
28-Mar-20 03:38 47.707513 -62.749650 238 31996ft 459kts
28-Mar-20 03:39 47.638848 -62.907749 238 31997ft 459kts
28-Mar-20 03:40 47.568948 -63.067760 238 31996ft 459kts
28-Mar-20 03:41 47.499375 -63.226095 238 31996ft 459kts
28-Mar-20 03:42 47.429383 -63.384467 238 31997ft 459kts
28-Mar-20 03:43 47.359296 -63.542142 238 31996ft 459kts
28-Mar-20 03:44 47.289378 -63.698541 238 31997ft 459kts
28-Mar-20 03:45 47.218834 -63.855443 238 31996ft 459kts
28-Mar-20 03:47 47.147781 -64.012579 238 31996ft 459kts
28-Mar-20 03:48 47.077142 -64.167917 237 31996ft 459kts
28-Mar-20 03:49 47.006582 -64.322217 237 31996ft 459kts
28-Mar-20 03:50 46.934332 -64.479324 237 31997ft 459kts
28-Mar-20 03:51 46.863123 -64.633299 237 31996ft 459kts
28-Mar-20 03:52 46.791497 -64.787317 237 31996ft 459kts
28-Mar-20 03:53 46.719222 -64.941872 237 31997ft 459kts
28-Mar-20 03:54 46.647140 -65.095166 237 31996ft 459kts
28-Mar-20 03:55 46.574473 -65.248854 237 31996ft 459kts
28-Mar-20 03:56 46.502069 -65.401146 237 31997ft 459kts
28-Mar-20 03:57 46.429309 -65.553356 236 31997ft 459kts
28-Mar-20 03:58 46.356156 -65.705557 236 31996ft 459kts
28-Mar-20 03:59 46.283240 -65.856442 236 31996ft 459kts
28-Mar-20 04:00 46.209421 -66.008379 236 31997ft 460kts
28-Mar-20 04:01 46.135672 -66.159354 236 31996ft 460kts
28-Mar-20 04:02 46.061828 -66.309717 236 31997ft 460kts
28-Mar-20 04:03 45.987899 -66.459451 236 31996ft 460kts
28-Mar-20 04:04 45.914313 -66.607705 236 31996ft 460kts
28-Mar-20 04:05 45.839649 -66.757337 236 31996ft 460kts
28-Mar-20 04:06 45.764771 -66.906615 235 31997ft 460kts
28-Mar-20 04:06 45.702515 -67.030128 235 31996ft 460kts
28-Mar-20 04:07 45.627190 -67.178860 235 31997ft 460kts
28-Mar-20 04:09 45.539873 -67.350304 235 31996ft 460kts
28-Mar-20 04:09 45.476997 -67.474099 235 31997ft 460kts
28-Mar-20 04:11 45.388616 -67.645134 235 31996ft 460kts
28-Mar-20 04:11 45.325867 -67.767956 238 31998ft 459kts
28-Mar-20 04:12 45.259747 -67.922782 240 31996ft 459kts
28-Mar-20 04:14 45.181711 -68.102627 239 31996ft 459kts
28-Mar-20 04:14 45.126043 -68.231125 240 31997ft 459kts
28-Mar-20 04:15 45.058957 -68.384630 239 31996ft 459kts
28-Mar-20 04:16 44.991881 -68.537508 239 31997ft 459kts
28-Mar-20 04:17 44.924216 -68.689884 239 31996ft 459kts
28-Mar-20 04:18 44.855554 -68.843222 239 31996ft 459kts
28-Mar-20 04:19 44.792183 -68.998433 243 31996ft 458kts
28-Mar-20 04:20 44.731873 -69.153428 242 31996ft 458kts
28-Mar-20 04:21 44.669894 -69.310202 242 31997ft 458kts
28-Mar-20 04:22 44.608654 -69.466519 242 31996ft 458kts
28-Mar-20 04:23 44.547103 -69.622223 242 31996ft 458kts
28-Mar-20 04:24 44.484432 -69.777832 242 31997ft 458kts
28-Mar-20 04:25 44.401809 -69.913190 215 32001ft 466kts
28-Mar-20 04:26 44.287520 -69.997626 209 31996ft 468kts
28-Mar-20 04:27 44.171297 -70.080581 209 31996ft 468kts
28-Mar-20 04:28 44.056578 -70.163807 210 31996ft 468kts
28-Mar-20 04:29 43.941422 -70.246794 210 31996ft 468kts
28-Mar-20 04:30 43.826082 -70.329426 209 31997ft 468kts
28-Mar-20 04:31 43.709558 -70.412558 210 31995ft 468kts
28-Mar-20 04:32 43.599707 -70.490832 209 31997ft 468kts
28-Mar-20 04:33 43.487209 -70.570186 209 31997ft 468kts
28-Mar-20 04:34 43.383211 -70.675246 226 31996ft 462kts
28-Mar-20 04:35 43.294705 -70.801704 228 31996ft 462kts
28-Mar-20 04:36 43.205035 -70.930146 228 31996ft 462kts
28-Mar-20 04:37 43.116637 -71.057589 228 31996ft 462kts
28-Mar-20 04:38 43.027855 -71.184348 228 31997ft 462kts
28-Mar-20 04:39 42.938657 -71.310866 228 31996ft 462kts
28-Mar-20 04:40 42.849690 -71.436463 228 31997ft 462kts
28-Mar-20 04:41 42.760098 -71.562381 227 31996ft 462kts
28-Mar-20 04:42 42.670677 -71.687503 227 31997ft 462kts
28-Mar-20 04:43 42.580518 -71.813104 227 31996ft 462kts
28-Mar-20 04:44 42.490997 -71.937271 227 31996ft 462kts
28-Mar-20 04:45 42.400930 -72.061653 227 31996ft 462kts
28-Mar-20 04:46 42.311105 -72.185164 227 31997ft 462kts
28-Mar-20 04:47 42.220259 -72.309541 227 31996ft 462kts
28-Mar-20 04:48 42.139683 -72.419784 227 31996ft 462kts
28-Mar-20 04:49 42.048563 -72.543519 227 31996ft 462kts
28-Mar-20 04:50 41.959140 -72.668007 234 31998ft 460kts
28-Mar-20 04:51 41.907566 -72.821544 253 31996ft 456kts
28-Mar-20 04:52 41.869641 -72.984810 253 31996ft 456kts
28-Mar-20 04:53 41.830282 -73.147830 253 31996ft 456kts
28-Mar-20 04:54 41.791640 -73.309591 252 31997ft 456kts
28-Mar-20 04:55 41.752710 -73.470514 253 31996ft 456kts
28-Mar-20 04:56 41.713570 -73.629148 252 30026ft 448kts
28-Mar-20 04:57 41.674247 -73.786909 252 27660ft 439kts
28-Mar-20 04:58 41.637742 -73.939230 254 25566ft 425kts
28-Mar-20 04:59 41.603033 -74.087098 253 23528ft 411kts
28-Mar-20 05:00 41.568565 -74.230243 253 21528ft 398kts
28-Mar-20 05:01 41.503916 -74.341714 214 19507ft 394kts
28-Mar-20 05:02 41.404005 -74.394679 198 17538ft 390kts
28-Mar-20 05:03 41.302064 -74.438102 201 15661ft 379kts
28-Mar-20 05:04 41.203311 -74.480564 200 13866ft 369kts
28-Mar-20 05:05 41.106391 -74.521753 200 12090ft 360kts
28-Mar-20 05:06 41.008591 -74.544750 187 10360ft 356kts
28-Mar-20 05:07 40.915788 -74.552345 187 10072ft 308kts
28-Mar-20 05:08 40.835499 -74.559711 188 9691ft 272kts
28-Mar-20 05:09 40.760947 -74.556832 181 8682ft 267kts
28-Mar-20 05:10 40.687476 -74.552578 182 7617ft 263kts
28-Mar-20 05:11 40.617620 -74.528250 141 6530ft 270kts
28-Mar-20 05:12 40.560662 -74.466042 149 5561ft 265kts
28-Mar-20 05:13 40.503058 -74.416907 142 5381ft 220kts
28-Mar-20 05:14 40.496644 -74.352298 56 4533ft 181kts
28-Mar-20 05:15 40.514889 -74.290830 68 3443ft 179kts
28-Mar-20 05:16 40.552482 -74.256255 21 3515ft 168kts
28-Mar-20 05:17 40.595263 -74.230260 25 3518ft 169kts
28-Mar-20 05:18 40.637234 -74.203660 25 3506ft 158kts
28-Mar-20 05:19 40.678058 -74.177746 25 3472ft 174kts
28-Mar-20 05:20 40.727932 -74.154262 11 4243ft 214kts
28-Mar-20 05:21 40.778702 -74.175484 288 7732ft 199kts
28-Mar-20 05:22 40.753669 -74.244688 230 10526ft 228kts
28-Mar-20 05:23 40.688965 -74.249303 181 10777ft 242kts
28-Mar-20 05:24 40.625865 -74.267904 198 9588ft 231kts
28-Mar-20 05:25 40.564011 -74.287413 198 8335ft 225kts
28-Mar-20 05:26 40.504045 -74.307862 203 7087ft 220kts
28-Mar-20 05:27 40.447167 -74.335599 213 5832ft 214kts
28-Mar-20 05:28 40.399324 -74.380620 219 4594ft 216kts
28-Mar-20 05:29 40.351883 -74.430351 219 3527ft 211kts
28-Mar-20 05:30 40.306270 -74.479567 219 3515ft 210kts
28-Mar-20 05:31 40.260569 -74.519585 183 3441ft 189kts
28-Mar-20 05:32 40.231730 -74.471351 78 3508ft 187kts
28-Mar-20 05:33 40.270492 -74.429395 26 3529ft 177kts
28-Mar-20 05:34 40.315463 -74.402962 23 3515ft 177kts
28-Mar-20 05:35 40.360437 -74.377697 24 3522ft 174kts
28-Mar-20 05:36 40.403509 -74.351235 25 3515ft 169kts
28-Mar-20 05:37 40.445861 -74.324665 25 3516ft 169kts
28-Mar-20 05:38 40.488225 -74.297955 25 3516ft 169kts
28-Mar-20 05:39 40.530734 -74.271102 25 3258ft 169kts
28-Mar-20 05:40 40.572024 -74.244983 25 2369ft 157kts
28-Mar-20 05:41 40.611498 -74.219979 25 1538ft 157kts
28-Mar-20 05:42 40.650814 -74.195043 25 705ft 155kts
28-Mar-20 05:43 40.688794 -74.170925 25 32ft 134kts
28-Mar-20 05:44 40.702320 -74.162717 322 31ft 11kts
28-Mar-20 05:45 40.701218 -74.164825 188 31ft 21kts
28-Mar-20 05:46 40.696426 -74.168467 221 31ft 12kts
28-Mar-20 05:47 40.692952 -74.171640 272 31ft 11kts
28-Mar-20 05:48 40.694486 -74.175912 355 31ft 9kts
28-Mar-20 05:49 40.694726 -74.175917 0 31ft 0kts
28-Mar-20 05:50 40.694728 -74.175917 0 31ft 0kts
28-Mar-20 05:51 40.694730 -74.175917 0 31ft 0kts
28-Mar-20 05:52 40.694732 -74.175917 0 31ft 0kts
28-Mar-20 05:53 40.694732 -74.175917 0 31ft 0kts
28-Mar-20 05:54 40.694732 -74.175917 0 31ft 0kts
28-Mar-20 05:55 40.694732 -74.175917 0 32ft 0kts
28-Mar-20 05:56 40.694732 -74.175917 0 32ft 0kts
28-Mar-20 05:57 40.694732 -74.175917 0 32ft 0kts
28-Mar-20 05:58 40.694732 -74.175917 0 32ft 0kts

Navigation Log

Ident Type
Flight plan parsing failed, navigation log unavailable